Tatiana 1 — 9HA2824 — position and weather

sailwx.info

Track history (hours):
 
Tides and Currents Weather Stations Pressure Air Temp Water Temp Dewpoint Dewpoint Depression Visibility Wind Speed Wind Dir Waves Ship Positions

Tatiana 1

Last reported at 2016-Jul-27 18:29 UTC. Time now 2016-Jul-28 10:33 UTC.
Position N 38°50' E 001°25'.

Length 47 m; draft 1.7 m.

Type: Ship. MMSI: 256188000.

Date/timePositionNaut miles runAvg speedWind from/ knotsBaromVisibWave heightAir tempDewpointWater temp
2016-Jul-27 18:29N 38°50' E 001°25'5 0.7
2016-Jul-27 11:33N 38°45' E 001°25'9 0.2
2016-Jul-25 17:05N 38°54' E 001°26'0 0.0
2016-Jul-25 14:23N 38°54' E 001°26'7 8.7
2016-Jul-25 13:33N 38°57' E 001°34'1010.2
2016-Jul-25 12:33N 39°04' E 001°44'1010.1
2016-Jul-25 11:33N 39°10' E 001°54'1010.5
2016-Jul-25 10:33N 39°16' E 002°05'1110.5
2016-Jul-25 09:33N 39°22' E 002°16'1110.5
2016-Jul-25 08:33N 39°28' E 002°27'1 0.1
2016-Jul-24 18:28N 39°29' E 002°28'3 2.6
2016-Jul-24 17:25N 39°28' E 002°32'0 0.0
2016-Jul-24 16:31N 39°28' E 002°32'5 5.6
2016-Jul-24 15:33N 39°29' E 002°38'4 4.0
2016-Jul-24 14:31N 39°29' E 002°44'0 0.0
2016-Jul-24 13:31N 39°29' E 002°44'0 0.1
2016-Jul-24 12:32N 39°29' E 002°44'1 1.1
2016-Jul-24 11:32N 39°28' E 002°43'0 0.0
2016-Jul-24 10:32N 39°28' E 002°43'0 0.0
2016-Jul-24 09:32N 39°28' E 002°43'1 1.0
2016-Jul-24 08:33N 39°29' E 002°43'1010.3
2016-Jul-24 07:33N 39°27' E 002°30'2 0.2
2016-Jul-23 18:10N 39°29' E 002°29'5 0.8
2016-Jul-23 12:04N 39°32' E 002°23'510.0
2016-Jul-23 11:33N 39°28' E 002°18'1211.8
2016-Jul-23 10:33N 39°20' E 002°07'1312.0
2016-Jul-23 09:30N 39°12' E 001°55'1212.1
2016-Jul-23 08:33N 39°04' E 001°44'21 1.3
2016-Jul-22 16:15N 38°49' E 001°25'6 0.8
2016-Jul-22 08:33N 38°43' E 001°23'1111.1
2016-Jul-22 07:33N 38°54' E 001°27'1 0.0
2016-Jul-21 10:06N 38°54' E 001°26'2 0.2
2016-Jul-20 20:27N 38°51' E 001°26'5 2.8
2016-Jul-20 18:32N 38°52' E 001°19'0 0.0
2016-Jul-20 15:21N 38°52' E 001°19'3 3.9
2016-Jul-20 14:33N 38°49' E 001°21'6 5.6
2016-Jul-20 13:33N 38°45' E 001°26'0 0.0
2016-Jul-20 12:21N 38°45' E 001°26'0 0.0
2016-Jul-20 10:22N 38°45' E 001°26'6 6.9
2016-Jul-20 09:33N 38°50' E 001°26'1 0.1
2016-Jul-19 18:33N 38°51' E 001°26'6 3.8
2016-Jul-19 17:04N 38°52' E 001°19'0 0.0
2016-Jul-19 16:28N 38°52' E 001°19'5 1.0
2016-Jul-19 11:33N 38°49' E 001°24'  
Track history (hours):
 
Tides and Currents Weather Stations Pressure Air Temp Water Temp Dewpoint Dewpoint Depression Visibility Wind Speed Wind Dir Waves Ship Positions

Tatiana 1

Last reported at 2016-Jul-27 18:29 UTC. Time now 2016-Jul-28 10:33 UTC.
Position N 38°50' E 001°25'.

Length 47 m; draft 1.7 m.

Type: Ship. MMSI: 256188000.

Date/timePositionNaut miles runAvg speedWind from/ knotsBaromVisibWave heightAir tempDewpointWater temp
2016-Jul-27 18:29N 38°50' E 001°25'5 0.7
2016-Jul-27 11:33N 38°45' E 001°25'9 0.2
2016-Jul-25 17:05N 38°54' E 001°26'0 0.0
2016-Jul-25 14:23N 38°54' E 001°26'7 8.7
2016-Jul-25 13:33N 38°57' E 001°34'1010.2
2016-Jul-25 12:33N 39°04' E 001°44'1010.1
2016-Jul-25 11:33N 39°10' E 001°54'1010.5
2016-Jul-25 10:33N 39°16' E 002°05'1110.5
2016-Jul-25 09:33N 39°22' E 002°16'1110.5
2016-Jul-25 08:33N 39°28' E 002°27'1 0.1
2016-Jul-24 18:28N 39°29' E 002°28'3 2.6
2016-Jul-24 17:25N 39°28' E 002°32'0 0.0
2016-Jul-24 16:31N 39°28' E 002°32'5 5.6
2016-Jul-24 15:33N 39°29' E 002°38'4 4.0
2016-Jul-24 14:31N 39°29' E 002°44'0 0.0
2016-Jul-24 13:31N 39°29' E 002°44'0 0.1
2016-Jul-24 12:32N 39°29' E 002°44'1 1.1
2016-Jul-24 11:32N 39°28' E 002°43'0 0.0
2016-Jul-24 10:32N 39°28' E 002°43'0 0.0
2016-Jul-24 09:32N 39°28' E 002°43'1 1.0
2016-Jul-24 08:33N 39°29' E 002°43'1010.3
2016-Jul-24 07:33N 39°27' E 002°30'2 0.2
2016-Jul-23 18:10N 39°29' E 002°29'5 0.8
2016-Jul-23 12:04N 39°32' E 002°23'510.0
2016-Jul-23 11:33N 39°28' E 002°18'1211.8
2016-Jul-23 10:33N 39°20' E 002°07'1312.0
2016-Jul-23 09:30N 39°12' E 001°55'1212.1
2016-Jul-23 08:33N 39°04' E 001°44'21 1.3
2016-Jul-22 16:15N 38°49' E 001°25'6 0.8
2016-Jul-22 08:33N 38°43' E 001°23'1111.1
2016-Jul-22 07:33N 38°54' E 001°27'1 0.0
2016-Jul-21 10:06N 38°54' E 001°26'2 0.2
2016-Jul-20 20:27N 38°51' E 001°26'5 2.8
2016-Jul-20 18:32N 38°52' E 001°19'0 0.0
2016-Jul-20 15:21N 38°52' E 001°19'3 3.9
2016-Jul-20 14:33N 38°49' E 001°21'6 5.6
2016-Jul-20 13:33N 38°45' E 001°26'0 0.0
2016-Jul-20 12:21N 38°45' E 001°26'0 0.0
2016-Jul-20 10:22N 38°45' E 001°26'6 6.9
2016-Jul-20 09:33N 38°50' E 001°26'1 0.1
2016-Jul-19 18:33N 38°51' E 001°26'6 3.8
2016-Jul-19 17:04N 38°52' E 001°19'0 0.0
2016-Jul-19 16:28N 38°52' E 001°19'5 1.0
2016-Jul-19 11:33N 38°49' E 001°24'  

Dump ship's entire track history